createdAt,value
2018-02-02T00:01:12.443Z,26.48
2018-02-02T00:03:38.941Z,26.25
2018-02-02T00:06:05.532Z,26.70
2018-02-02T00:08:31.924Z,26.98
2018-02-02T00:10:58.613Z,25.08
2018-02-02T00:13:25.160Z,28.15
2018-02-02T00:15:51.672Z,27.17
2018-02-02T00:18:18.232Z,27.15
2018-02-02T00:20:45.368Z,27.77
2018-02-02T00:23:11.908Z,24.33
2018-02-02T00:25:38.415Z,24.45
2018-02-02T00:28:05.208Z,26.52
2018-02-02T00:30:31.809Z,24.87
2018-02-02T00:32:58.294Z,28.25
2018-02-02T00:35:24.663Z,25.30
2018-02-02T00:37:51.044Z,25.85
2018-02-02T00:40:17.583Z,27.37
2018-02-02T00:42:44.121Z,27.62
2018-02-02T00:45:10.980Z,26.73
2018-02-02T00:47:37.483Z,26.37
2018-02-02T00:50:04.055Z,27.48
2018-02-02T00:52:31.240Z,29.87
2018-02-02T00:54:58.085Z,27.20
2018-02-02T00:57:24.575Z,28.05
2018-02-02T00:59:51.157Z,28.77
2018-02-02T01:02:17.535Z,28.17
2018-02-02T01:04:44.236Z,28.48
2018-02-02T01:07:11.076Z,28.17
2018-02-02T01:09:37.847Z,29.02
2018-02-02T01:12:04.396Z,32.05
2018-02-02T01:14:30.939Z,30.73
2018-02-02T01:16:57.816Z,29.50
2018-02-02T01:19:24.315Z,30.20
2018-02-02T01:21:50.838Z,29.70
2018-02-02T01:24:18.179Z,31.25
2018-02-02T01:26:45.180Z,29.55
2018-02-02T01:29:11.728Z,30.83
2018-02-02T01:31:38.207Z,28.40
2018-02-02T01:34:04.736Z,33.15
2018-02-02T01:36:31.300Z,31.95
2018-02-02T01:38:57.739Z,31.15
2018-02-02T01:41:24.729Z,33.63
2018-02-02T01:43:51.228Z,32.85
2018-02-02T01:46:17.801Z,31.37
2018-02-02T01:48:44.324Z,33.00
2018-02-02T01:51:11.028Z,33.78
2018-02-02T01:53:37.707Z,33.47
2018-02-02T01:56:04.261Z,33.75
2018-02-02T01:58:30.764Z,36.75
2018-02-02T02:00:57.284Z,34.55
2018-02-02T02:03:24.148Z,34.15
2018-02-02T02:05:50.519Z,36.45
2018-02-02T02:08:17.200Z,34.40
2018-02-02T02:10:43.992Z,34.67
2018-02-02T02:13:11.628Z,34.22
2018-02-02T02:15:38.631Z,35.00
2018-02-02T02:18:05.143Z,36.85
2018-02-02T02:20:32.060Z,35.45
2018-02-02T02:22:58.528Z,36.17
2018-02-02T02:25:25.177Z,35.30
2018-02-02T02:27:51.587Z,35.13
2018-02-02T02:30:18.112Z,33.38
2018-02-02T02:32:44.545Z,33.70
2018-02-02T02:35:11.256Z,35.10
2018-02-02T02:37:38.755Z,36.03
2018-02-02T02:40:05.167Z,33.13
2018-02-02T02:42:31.766Z,35.97
2018-02-02T02:44:58.255Z,37.45
2018-02-02T02:47:24.663Z,32.80
2018-02-02T02:49:51.327Z,30.55
2018-02-02T02:52:17.840Z,32.88
2018-02-02T02:54:44.384Z,32.53
2018-02-02T02:57:10.916Z,35.35
2018-02-02T02:59:37.327Z,34.15
2018-02-02T03:02:03.990Z,32.05
2018-02-02T03:04:30.853Z,31.30
2018-02-02T03:06:57.393Z,33.58
2018-02-02T03:09:23.924Z,33.63
2018-02-02T03:11:50.438Z,33.70
2018-02-02T03:14:17.322Z,34.05
2018-02-02T03:16:43.872Z,34.80
2018-02-02T03:19:10.591Z,34.65
2018-02-02T03:21:37.222Z,33.08
2018-02-02T03:24:03.786Z,34.65
2018-02-02T03:26:30.521Z,36.20
2018-02-02T03:28:57.103Z,33.15
2018-02-02T03:31:23.639Z,32.25
2018-02-02T03:33:50.307Z,34.28
2018-02-02T03:36:16.711Z,32.20
2018-02-02T03:38:43.247Z,33.42
2018-02-02T03:41:09.794Z,31.90
2018-02-02T03:43:36.367Z,33.30
2018-02-02T03:46:02.920Z,34.60
2018-02-02T03:48:29.392Z,34.08
2018-02-02T03:50:55.970Z,33.15
2018-02-02T03:53:22.731Z,31.98
2018-02-02T03:55:49.310Z,32.00
2018-02-02T03:58:15.843Z,33.00
2018-02-02T04:00:42.432Z,32.20
2018-02-02T04:03:08.900Z,31.70
2018-02-02T04:05:35.513Z,32.38
2018-02-02T04:08:02.054Z,32.40
2018-02-02T04:10:28.580Z,33.92
2018-02-02T04:12:55.110Z,34.88
2018-02-02T04:15:21.579Z,33.13
2018-02-02T04:17:48.127Z,32.83
2018-02-02T04:20:14.572Z,32.30
2018-02-02T04:22:41.264Z,35.50
2018-02-02T04:25:07.772Z,36.80
2018-02-02T04:27:34.272Z,37.20
2018-02-02T04:30:00.800Z,36.00
2018-02-02T04:32:27.731Z,36.45
2018-02-02T04:35:00.133Z,36.42
2018-02-02T04:37:26.588Z,36.17
2018-02-02T04:39:52.989Z,36.28
2018-02-02T04:42:19.720Z,35.38
2018-02-02T04:44:46.208Z,33.50
2018-02-02T04:47:12.740Z,33.67
2018-02-02T04:49:39.293Z,34.95
2018-02-02T04:52:06.059Z,35.55
2018-02-02T04:54:32.603Z,33.80
2018-02-02T04:56:59.028Z,32.80
2018-02-02T04:59:25.784Z,35.30
2018-02-02T05:01:52.203Z,32.67
2018-02-02T05:04:18.824Z,33.42
2018-02-02T05:06:45.592Z,32.67
2018-02-02T05:09:12.184Z,41.90
2018-02-02T05:11:38.680Z,42.10
2018-02-02T05:14:05.183Z,39.30
2018-02-02T05:16:31.771Z,41.85
2018-02-02T05:18:58.600Z,38.97
2018-02-02T05:21:25.156Z,38.75
2018-02-02T05:23:51.956Z,42.03
2018-02-02T05:26:18.471Z,37.15
2018-02-02T05:28:45.127Z,38.63
2018-02-02T05:31:11.561Z,36.05
2018-02-02T05:33:38.087Z,38.47
2018-02-02T05:36:04.628Z,37.65
2018-02-02T05:38:31.208Z,33.63
2018-02-02T05:40:57.991Z,36.03
2018-02-02T05:43:24.523Z,37.88
2018-02-02T05:45:51.180Z,39.00
2018-02-02T05:48:17.667Z,38.63
2018-02-02T05:50:44.033Z,39.08
2018-02-02T05:53:11.052Z,48.08
2018-02-02T05:55:37.541Z,39.85
2018-02-02T05:58:04.056Z,42.38
2018-02-02T06:00:30.915Z,43.97
2018-02-02T06:02:57.415Z,44.40
2018-02-02T06:05:24.329Z,41.08
2018-02-02T06:07:50.864Z,50.35
2018-02-02T06:10:17.343Z,47.35
2018-02-02T06:12:43.964Z,45.88
2018-02-02T06:15:10.472Z,42.03
2018-02-02T06:17:36.887Z,39.28
2018-02-02T06:20:03.472Z,41.95
2018-02-02T06:22:30.080Z,40.88
2018-02-02T06:24:56.620Z,42.47
2018-02-02T06:27:23.139Z,40.60
2018-02-02T06:29:49.994Z,40.80
2018-02-02T06:32:16.456Z,42.35
2018-02-02T06:34:43.360Z,37.13
2018-02-02T06:37:09.836Z,37.97
2018-02-02T06:39:36.433Z,45.90
2018-02-02T06:42:03.045Z,42.05
2018-02-02T06:44:29.796Z,38.28
2018-02-02T06:46:56.632Z,45.65
2018-02-02T06:49:23.200Z,42.20
2018-02-02T06:51:49.701Z,39.45
2018-02-02T06:54:16.499Z,44.15
2018-02-02T06:56:43.044Z,42.15
2018-02-02T06:59:09.576Z,42.58
2018-02-02T07:01:36.100Z,44.75
2018-02-02T07:04:02.716Z,45.90
2018-02-02T07:06:29.179Z,46.20
2018-02-02T07:08:55.780Z,45.97
2018-02-02T07:11:22.155Z,48.38
2018-02-02T07:13:48.863Z,47.08
2018-02-02T07:16:15.632Z,45.05
2018-02-02T07:18:42.164Z,41.95
2018-02-02T07:21:08.756Z,45.38
2018-02-02T07:23:35.238Z,45.42
2018-02-02T07:26:02.064Z,43.80
2018-02-02T07:28:28.635Z,42.58
2018-02-02T07:30:55.454Z,47.40
2018-02-02T07:33:22.044Z,41.92
2018-02-02T07:35:48.592Z,42.92
2018-02-02T07:38:15.115Z,44.50
2018-02-02T07:40:41.627Z,46.88
2018-02-02T07:43:08.156Z,44.72
2018-02-02T07:45:34.680Z,48.20
2018-02-02T07:48:01.217Z,45.85
2018-02-02T07:50:28.092Z,46.03
2018-02-02T07:52:54.571Z,47.78
2018-02-02T07:55:21.174Z,48.35
2018-02-02T07:57:47.756Z,49.78
2018-02-02T08:00:14.810Z,50.65
2018-02-02T08:02:41.264Z,52.42
2018-02-02T08:05:07.636Z,50.75
2018-02-02T08:07:34.143Z,49.40
2018-02-02T08:10:00.647Z,50.05
2018-02-02T08:12:27.155Z,46.42
2018-02-02T08:14:53.698Z,41.35
2018-02-02T08:17:20.298Z,42.05
2018-02-02T08:19:46.828Z,41.28
2018-02-02T08:22:13.295Z,42.53
2018-02-02T08:24:39.963Z,42.47
2018-02-02T08:27:06.448Z,44.15
2018-02-02T08:29:32.918Z,44.50
2018-02-02T08:31:59.290Z,45.30
2018-02-02T08:34:26.044Z,44.25
2018-02-02T08:36:52.526Z,40.90
2018-02-02T08:39:19.120Z,40.85
2018-02-02T08:41:45.755Z,40.28
2018-02-02T08:44:14.332Z,45.42
2018-02-02T08:46:40.805Z,40.95
2018-02-02T08:49:07.344Z,40.40
2018-02-02T08:51:33.872Z,38.25
2018-02-02T08:54:00.784Z,37.40
2018-02-02T08:56:27.257Z,38.38
2018-02-02T08:58:54.164Z,36.63
2018-02-02T09:01:26.792Z,39.78
2018-02-02T09:03:53.328Z,40.63
2018-02-02T09:06:19.858Z,37.00
2018-02-02T09:08:46.371Z,35.92
2018-02-02T09:11:12.907Z,34.22
2018-02-02T09:13:39.509Z,38.33
2018-02-02T09:16:06.047Z,35.95
2018-02-02T09:18:32.828Z,34.22
2018-02-02T09:20:59.676Z,36.05
2018-02-02T09:23:26.213Z,35.28
2018-02-02T09:25:52.731Z,37.25
2018-02-02T09:28:19.276Z,45.03
2018-02-02T09:30:45.888Z,43.95
2018-02-02T09:33:12.343Z,43.92
2018-02-02T09:35:38.878Z,42.83
2018-02-02T09:38:05.467Z,42.38
2018-02-02T09:40:32.061Z,39.97
2018-02-02T09:42:58.592Z,42.65
2018-02-02T09:45:25.015Z,43.08
2018-02-02T09:47:51.564Z,42.30
2018-02-02T09:50:18.172Z,43.15
2018-02-02T09:52:44.644Z,42.38
2018-02-02T09:55:11.030Z,43.83
2018-02-02T09:57:37.772Z,40.20
2018-02-02T10:00:04.288Z,39.58
2018-02-02T10:02:30.769Z,39.85
2018-02-02T10:04:57.299Z,39.35
2018-02-02T10:07:24.168Z,41.83
2018-02-02T10:09:50.752Z,41.53
2018-02-02T10:12:17.298Z,40.78
2018-02-02T10:14:43.852Z,43.55
2018-02-02T10:17:10.294Z,45.10
2018-02-02T10:19:37.123Z,47.55
2018-02-02T10:22:03.568Z,44.05
2018-02-02T10:24:30.289Z,43.83
2018-02-02T10:26:57.108Z,44.50
2018-02-02T10:29:23.604Z,42.60
2018-02-02T10:31:50.184Z,47.50
2018-02-02T10:34:16.676Z,41.60
2018-02-02T10:36:43.547Z,43.30
2018-02-02T10:39:10.013Z,40.60
2018-02-02T10:41:36.864Z,44.70
2018-02-02T10:44:03.444Z,48.47
2018-02-02T10:46:29.948Z,49.17
2018-02-02T10:48:56.328Z,43.80
2018-02-02T10:51:23.008Z,42.67
2018-02-02T10:53:49.583Z,36.77
2018-02-02T10:56:16.063Z,42.50
2018-02-02T10:58:42.624Z,37.60
2018-02-02T11:01:15.192Z,44.10
2018-02-02T11:03:56.781Z,45.03
2018-02-02T11:06:23.502Z,46.50
2018-02-02T11:08:49.997Z,43.50
2018-02-02T11:11:17.743Z,47.53
2018-02-02T11:13:44.136Z,46.87
2018-02-02T11:16:10.812Z,39.50
2018-02-02T11:18:37.323Z,43.83
2018-02-02T11:21:03.928Z,46.20
2018-02-02T11:23:30.395Z,45.37
2018-02-02T11:25:56.988Z,41.90
2018-02-02T11:28:23.604Z,38.77
2018-02-02T11:30:49.983Z,39.00
2018-02-02T11:33:16.541Z,38.10
2018-02-02T11:35:43.464Z,37.53
2018-02-02T11:38:09.972Z,35.40
2018-02-02T11:40:36.572Z,33.80
2018-02-02T11:43:02.988Z,32.83
2018-02-02T11:45:29.532Z,28.95
2018-02-02T11:47:56.124Z,29.87
2018-02-02T11:50:22.656Z,25.40
2018-02-02T11:52:49.191Z,24.15
2018-02-02T11:55:15.643Z,24.37
2018-02-02T11:57:42.455Z,22.87
2018-02-02T12:00:09.106Z,23.05
2018-02-02T12:02:35.567Z,23.83
2018-02-02T12:05:02.108Z,22.65
2018-02-02T12:07:28.752Z,26.12
2018-02-02T12:09:55.175Z,24.48
2018-02-02T12:12:21.764Z,23.85
2018-02-02T12:14:48.230Z,27.65
2018-02-02T12:17:14.884Z,26.77
2018-02-02T12:19:41.363Z,23.42
2018-02-02T12:22:13.811Z,35.67
2018-02-02T12:24:46.204Z,27.20
2018-02-02T12:40:34.143Z,24.60
2018-02-02T12:43:00.676Z,22.73
2018-02-02T12:45:27.148Z,25.50
2018-02-02T12:47:59.703Z,25.85
2018-02-02T12:50:33.781Z,25.67
2018-02-02T12:53:00.412Z,26.62
2018-02-02T12:55:26.929Z,18.52
2018-02-02T12:57:53.331Z,23.45
2018-02-02T13:00:19.868Z,22.98
2018-02-02T13:02:46.496Z,20.90
2018-02-02T13:05:12.957Z,18.80
2018-02-02T13:07:39.554Z,9.27
2018-02-02T13:10:06.024Z,15.63
2018-02-02T13:12:32.600Z,10.55
2018-02-02T13:14:59.136Z,10.52
2018-02-02T13:17:25.923Z,7.65
2018-02-02T13:19:52.291Z,6.70
2018-02-02T13:22:19.672Z,7.30
2018-02-02T13:24:46.144Z,8.05
2018-02-02T13:27:12.672Z,8.60
2018-02-02T13:29:39.620Z,7.18
2018-02-02T13:32:06.100Z,6.62
2018-02-02T13:34:32.615Z,5.28
2018-02-02T13:36:59.200Z,5.78
2018-02-02T13:39:25.754Z,5.35
2018-02-02T13:41:52.195Z,5.45
2018-02-02T13:44:18.791Z,5.20
2018-02-02T13:46:45.144Z,5.72
2018-02-02T13:49:11.876Z,5.35
2018-02-02T13:51:38.409Z,6.12
2018-02-02T13:54:04.889Z,5.78
2018-02-02T13:56:31.410Z,6.30
2018-02-02T13:58:57.996Z,6.22
2018-02-02T14:01:24.796Z,6.18
2018-02-02T14:03:51.343Z,5.75
2018-02-02T14:06:17.972Z,5.82
2018-02-02T14:08:44.469Z,7.85
2018-02-02T14:11:10.891Z,13.75
2018-02-02T14:13:37.256Z,16.00
2018-02-02T14:16:04.383Z,11.95
2018-02-02T14:18:30.850Z,9.75
2018-02-02T14:20:57.199Z,11.30
2018-02-02T14:23:23.603Z,27.08
2018-02-02T14:25:50.145Z,10.35
2018-02-02T14:28:17.061Z,8.70
2018-02-02T14:30:43.519Z,8.05
2018-02-02T14:33:10.132Z,11.68
2018-02-02T14:35:36.641Z,12.13
2018-02-02T14:38:03.120Z,9.57
2018-02-02T14:40:29.495Z,5.90
2018-02-02T14:42:56.508Z,7.50
2018-02-02T14:45:23.438Z,6.28
2018-02-02T14:50:39.196Z,6.93
2018-02-02T14:53:05.688Z,5.90
2018-02-02T14:55:32.229Z,5.25
2018-02-02T14:57:58.774Z,5.47
2018-02-02T15:00:25.406Z,7.72
2018-02-02T15:02:51.872Z,7.07
2018-02-02T15:05:18.304Z,7.62
2018-02-02T15:07:44.948Z,6.00
2018-02-02T15:10:11.748Z,6.75
2018-02-02T15:12:38.300Z,6.80
2018-02-02T15:15:05.273Z,7.10
2018-02-02T15:17:31.959Z,5.90
2018-02-02T15:19:58.560Z,5.87
2018-02-02T15:22:25.424Z,7.20
2018-02-02T15:24:51.972Z,7.35
2018-02-02T15:27:19.091Z,5.85
2018-02-02T15:29:45.555Z,6.50
2018-02-02T15:32:11.924Z,6.90
2018-02-02T15:34:38.388Z,5.95
2018-02-02T15:37:04.973Z,5.85
2018-02-02T15:39:31.464Z,7.65
2018-02-02T15:41:57.984Z,7.10
2018-02-02T15:44:24.455Z,5.40
2018-02-02T15:46:50.996Z,6.47
2018-02-02T15:49:17.387Z,8.40
2018-02-02T15:51:44.124Z,6.82
2018-02-02T15:54:10.641Z,6.70
2018-02-02T15:56:38.673Z,6.65
2018-02-02T15:59:05.039Z,7.95
2018-02-02T16:01:31.427Z,23.17
2018-02-02T16:03:58.277Z,27.27
2018-02-02T16:06:24.812Z,29.70
2018-02-02T16:08:51.351Z,25.52
2018-02-02T16:11:17.988Z,27.80
2018-02-02T16:13:44.416Z,29.23
2018-02-02T16:16:11.247Z,24.35
2018-02-02T16:18:38.159Z,18.17
2018-02-02T16:21:04.628Z,19.55
2018-02-02T16:23:31.164Z,14.02
2018-02-02T16:25:57.630Z,20.33
2018-02-02T16:28:24.271Z,15.95
2018-02-02T16:30:51.077Z,18.65
2018-02-02T16:33:18.500Z,18.23
2018-02-02T16:35:45.172Z,20.00
2018-02-02T16:38:11.644Z,20.58
2018-02-02T16:40:38.143Z,20.45
2018-02-02T16:43:04.676Z,25.37
2018-02-02T16:45:31.315Z,29.95
2018-02-02T16:47:57.820Z,32.88
2018-02-02T16:50:24.402Z,30.80
2018-02-02T16:52:50.776Z,21.33
2018-02-02T16:55:18.376Z,17.02
2018-02-02T16:57:44.859Z,26.10
2018-02-02T17:00:11.668Z,30.70
2018-02-02T17:02:38.183Z,35.75
2018-02-02T17:05:04.778Z,29.83
2018-02-02T17:07:31.360Z,9.60
2018-02-02T17:09:57.943Z,27.85
2018-02-02T17:12:24.416Z,31.25
2018-02-02T17:14:50.919Z,30.65
2018-02-02T17:17:17.456Z,31.67
2018-02-02T17:19:43.836Z,30.37
2018-02-02T17:22:10.572Z,29.60
2018-02-02T17:24:37.021Z,30.85
2018-02-02T17:27:03.543Z,27.65
2018-02-02T17:29:30.148Z,27.13
2018-02-02T17:31:56.667Z,28.40
2018-02-02T17:34:23.164Z,28.20
2018-02-02T17:36:49.683Z,28.67
2018-02-02T17:39:16.280Z,28.83
2018-02-02T17:41:42.747Z,30.62
2018-02-02T17:44:09.368Z,28.58
2018-02-02T17:46:35.847Z,28.92
2018-02-02T17:49:02.972Z,27.02
2018-02-02T17:51:29.523Z,32.08
2018-02-02T17:53:56.031Z,32.88
2018-02-02T17:56:22.949Z,32.75
2018-02-02T17:58:49.484Z,33.90
2018-02-02T18:01:30.899Z,31.10
2018-02-02T18:03:57.579Z,20.50
2018-02-02T18:06:24.063Z,30.20
2018-02-02T18:08:50.902Z,24.60
2018-02-02T18:11:17.820Z,10.95
2018-02-02T18:13:44.299Z,12.70
2018-02-02T18:16:10.878Z,14.65
2018-02-02T18:18:37.731Z,12.95
2018-02-02T18:21:04.300Z,12.90
2018-02-02T18:23:30.795Z,12.50
2018-02-02T18:25:57.283Z,11.35
2018-02-02T18:28:24.120Z,10.10
2018-02-02T18:30:50.724Z,12.25
2018-02-02T18:33:17.165Z,10.40
2018-02-02T18:35:43.576Z,6.87
2018-02-02T18:38:09.975Z,4.55
2018-02-02T18:40:36.560Z,6.97
2018-02-02T18:43:03.104Z,5.53
2018-02-02T18:45:29.552Z,6.72
2018-02-02T18:47:56.099Z,7.40
2018-02-02T18:50:22.632Z,9.93
2018-02-02T18:52:49.055Z,8.27
2018-02-02T18:55:15.688Z,5.95
2018-02-02T18:57:42.223Z,6.70
2018-02-02T19:00:09.099Z,2.90
2018-02-02T19:02:35.470Z,3.72
2018-02-02T19:05:01.880Z,7.65
2018-02-02T19:07:28.374Z,9.90
2018-02-02T19:09:54.944Z,6.35
2018-02-02T19:12:21.447Z,4.22
2018-02-02T19:14:47.967Z,2.80
2018-02-02T19:17:14.568Z,2.20
2018-02-02T19:19:40.976Z,2.15
2018-02-02T19:22:07.627Z,2.85
2018-02-02T19:24:34.119Z,3.65
2018-02-02T19:27:00.716Z,2.90
2018-02-02T19:29:27.177Z,4.00
2018-02-02T19:31:53.728Z,31.52
2018-02-02T19:34:20.300Z,8.93
2018-02-02T19:36:46.711Z,6.30
2018-02-02T19:39:13.676Z,4.10
2018-02-02T19:41:40.167Z,4.12
2018-02-02T19:44:06.707Z,3.70
2018-02-02T19:46:33.122Z,5.12
2018-02-02T19:48:59.792Z,5.30
2018-02-02T19:51:26.380Z,3.75
2018-02-02T19:53:52.839Z,9.45
2018-02-02T19:56:19.444Z,14.52
2018-02-02T19:58:46.328Z,16.73
2018-02-02T20:01:12.756Z,18.65
2018-02-02T20:03:39.353Z,15.23
2018-02-02T20:06:05.836Z,10.38
2018-02-02T20:08:32.428Z,10.45
2018-02-02T20:10:59.082Z,8.30
2018-02-02T20:13:25.884Z,8.95
2018-02-02T20:15:52.274Z,3.50
2018-02-02T20:18:18.880Z,9.90
2018-02-02T20:20:45.456Z,14.00
2018-02-02T20:23:12.503Z,3.05
2018-02-02T20:25:39.041Z,6.12
2018-02-02T20:28:05.650Z,3.40
2018-02-02T20:30:32.098Z,3.55
2018-02-02T20:32:58.708Z,3.53
2018-02-02T20:35:25.173Z,3.03
2018-02-02T20:37:51.728Z,4.25
2018-02-02T20:40:18.107Z,3.15
2018-02-02T20:42:44.832Z,3.30
2018-02-02T20:45:11.372Z,3.28
2018-02-02T20:47:37.859Z,3.70
2018-02-02T20:50:04.426Z,3.15
2018-02-02T20:52:32.184Z,4.00
2018-02-02T20:54:58.796Z,2.60
2018-02-02T20:57:25.218Z,3.15
2018-02-02T20:59:51.818Z,3.05
2018-02-02T21:02:18.301Z,3.20
2018-02-02T21:04:44.888Z,4.87
2018-02-02T21:07:11.300Z,3.50
2018-02-02T21:09:37.936Z,2.70
2018-02-02T21:12:04.432Z,2.60
2018-02-02T21:14:31.020Z,3.15
2018-02-02T21:16:57.568Z,3.50
2018-02-02T21:19:24.079Z,2.92
2018-02-02T21:21:50.585Z,3.25
2018-02-02T21:24:16.944Z,3.67
2018-02-02T21:26:43.444Z,3.20
2018-02-02T21:29:09.915Z,2.70
2018-02-02T21:31:36.703Z,3.78
2018-02-02T21:34:03.235Z,3.75
2018-02-02T21:36:29.803Z,3.67
2018-02-02T21:38:56.313Z,4.18
2018-02-02T21:41:22.856Z,4.30
2018-02-02T21:43:49.388Z,3.58
2018-02-02T21:46:15.759Z,3.03
2018-02-02T21:48:42.168Z,3.62
2018-02-02T21:51:08.648Z,3.10
2018-02-02T21:53:35.223Z,2.83
2018-02-02T21:56:03.116Z,3.70
2018-02-02T21:58:29.549Z,3.28
2018-02-02T22:00:56.178Z,3.45
2018-02-02T22:03:23.202Z,4.07
2018-02-02T22:05:49.816Z,4.78
2018-02-02T22:08:16.350Z,3.50
2018-02-02T22:10:42.827Z,3.08
2018-02-02T22:13:10.476Z,3.87
2018-02-02T22:15:37.486Z,4.93
2018-02-02T22:18:03.950Z,3.42
2018-02-02T22:20:30.520Z,3.40
2018-02-02T22:22:57.042Z,3.55
2018-02-02T22:25:23.571Z,3.75
2018-02-02T22:27:49.988Z,4.15
2018-02-02T22:30:16.655Z,3.55
2018-02-02T22:32:43.488Z,3.80
2018-02-02T22:35:09.997Z,4.07
2018-02-02T22:37:36.792Z,3.28
2018-02-02T22:40:03.388Z,3.62
2018-02-02T22:42:29.918Z,3.25
2018-02-02T22:44:56.465Z,4.72
2018-02-02T22:47:23.041Z,4.45
2018-02-02T22:49:49.531Z,3.72
2018-02-02T22:52:16.057Z,3.30
2018-02-02T22:54:42.583Z,3.80
2018-02-02T22:57:09.119Z,3.62
2018-02-02T22:59:35.679Z,3.40
2018-02-02T23:02:02.217Z,3.80
2018-02-02T23:04:28.754Z,3.58
2018-02-02T23:06:55.297Z,3.72
2018-02-02T23:09:23.348Z,3.10
2018-02-02T23:11:50.248Z,3.40
2018-02-02T23:14:16.731Z,3.65
2018-02-02T23:16:43.295Z,3.62
2018-02-02T23:19:09.792Z,4.85
2018-02-02T23:21:36.323Z,6.53
2018-02-02T23:24:02.884Z,5.60
2018-02-02T23:26:29.406Z,3.80
2018-02-02T23:28:55.942Z,5.03
2018-02-02T23:31:22.799Z,5.10
2018-02-02T23:33:49.319Z,6.25
2018-02-02T23:36:16.183Z,6.53
2018-02-02T23:38:42.731Z,6.18
2018-02-02T23:41:09.243Z,7.82
2018-02-02T23:43:35.751Z,6.78
2018-02-02T23:46:02.621Z,6.85
2018-02-02T23:48:29.500Z,6.62
2018-02-02T23:50:56.320Z,6.55
2018-02-02T23:53:22.835Z,7.15
2018-02-02T23:55:49.357Z,4.60
2018-02-02T23:58:15.892Z,4.20
